sensor_id;sensor_type;location;lat;lon;timestamp;P1;durP1;ratioP1;P2;durP2;ratioP2
2658;SDS011;1339;53.304;10.406;2023-07-31T17:22:19;6.40;;;5.90;;
2658;SDS011;1339;53.304;10.406;2023-07-31T17:24:46;10.40;;;6.60;;
2658;SDS011;1339;53.304;10.406;2023-07-31T17:27:13;6.53;;;5.87;;
2658;SDS011;1339;53.304;10.406;2023-07-31T17:29:39;6.50;;;6.00;;
2658;SDS011;1339;53.304;10.406;2023-07-31T17:32:07;6.43;;;5.93;;
2658;SDS011;1339;53.304;10.406;2023-07-31T17:34:33;6.00;;;5.60;;
2658;SDS011;1339;53.304;10.406;2023-07-31T17:37:00;5.93;;;5.50;;
2658;SDS011;1339;53.304;10.406;2023-07-31T17:39:29;5.03;;;4.70;;
2658;SDS011;1339;53.304;10.406;2023-07-31T17:41:56;6.27;;;5.87;;
2658;SDS011;1339;53.304;10.406;2023-07-31T17:44:23;5.77;;;5.37;;
2658;SDS011;1339;53.304;10.406;2023-07-31T17:46:50;4.87;;;4.50;;
2658;SDS011;1339;53.304;10.406;2023-07-31T17:49:17;6.17;;;5.67;;
2658;SDS011;1339;53.304;10.406;2023-07-31T17:51:44;6.50;;;6.10;;
2658;SDS011;1339;53.304;10.406;2023-07-31T17:54:11;6.13;;;5.73;;
2658;SDS011;1339;53.304;10.406;2023-07-31T17:56:39;6.10;;;5.70;;
2658;SDS011;1339;53.304;10.406;2023-07-31T17:59:06;6.03;;;5.63;;
2658;SDS011;1339;53.304;10.406;2023-07-31T18:01:34;6.20;;;5.70;;
2658;SDS011;1339;53.304;10.406;2023-07-31T18:04:01;6.30;;;5.80;;
2658;SDS011;1339;53.304;10.406;2023-07-31T18:06:29;8.37;;;7.80;;
2658;SDS011;1339;53.304;10.406;2023-07-31T18:08:59;8.10;;;7.20;;
2658;SDS011;1339;53.304;10.406;2023-07-31T18:11:26;8.00;;;7.40;;
2658;SDS011;1339;53.304;10.406;2023-07-31T18:13:56;7.40;;;6.80;;
2658;SDS011;1339;53.304;10.406;2023-07-31T18:16:23;7.40;;;6.80;;
2658;SDS011;1339;53.304;10.406;2023-07-31T18:18:50;7.00;;;6.50;;
2658;SDS011;1339;53.304;10.406;2023-07-31T18:21:17;6.63;;;6.23;;
2658;SDS011;1339;53.304;10.406;2023-07-31T18:23:44;8.83;;;6.90;;
2658;SDS011;1339;53.304;10.406;2023-07-31T18:26:11;7.07;;;6.40;;
2658;SDS011;1339;53.304;10.406;2023-07-31T18:28:38;6.90;;;6.30;;
2658;SDS011;1339;53.304;10.406;2023-07-31T18:31:06;7.83;;;7.13;;
2658;SDS011;1339;53.304;10.406;2023-07-31T18:33:33;7.77;;;7.27;;
2658;SDS011;1339;53.304;10.406;2023-07-31T18:36:01;6.50;;;5.90;;
2658;SDS011;1339;53.304;10.406;2023-07-31T18:38:29;8.30;;;7.70;;
2658;SDS011;1339;53.304;10.406;2023-07-31T18:40:56;8.77;;;7.23;;
2658;SDS011;1339;53.304;10.406;2023-07-31T18:43:23;8.80;;;8.10;;
2658;SDS011;1339;53.304;10.406;2023-07-31T18:45:51;8.77;;;8.07;;
2658;SDS011;1339;53.304;10.406;2023-07-31T18:48:19;9.47;;;8.77;;
2658;SDS011;1339;53.304;10.406;2023-07-31T18:50:46;8.67;;;7.87;;
2658;SDS011;1339;53.304;10.406;2023-07-31T18:53:13;9.97;;;9.30;;
2658;SDS011;1339;53.304;10.406;2023-07-31T18:55:42;9.57;;;8.77;;
2658;SDS011;1339;53.304;10.406;2023-07-31T18:58:09;8.97;;;8.27;;
2658;SDS011;1339;53.304;10.406;2023-07-31T19:00:36;8.33;;;7.73;;
2658;SDS011;1339;53.304;10.406;2023-07-31T19:03:03;9.40;;;8.60;;
2658;SDS011;1339;53.304;10.406;2023-07-31T19:05:31;9.67;;;8.87;;
2658;SDS011;1339;53.304;10.406;2023-07-31T19:07:58;8.33;;;7.73;;
2658;SDS011;1339;53.304;10.406;2023-07-31T19:10:29;9.70;;;8.90;;
2658;SDS011;1339;53.304;10.406;2023-07-31T19:12:56;9.10;;;8.30;;
2658;SDS011;1339;53.304;10.406;2023-07-31T19:15:23;9.93;;;9.13;;
2658;SDS011;1339;53.304;10.406;2023-07-31T19:17:50;10.40;;;9.70;;
2658;SDS011;1339;53.304;10.406;2023-07-31T19:20:17;9.97;;;9.17;;
2658;SDS011;1339;53.304;10.406;2023-07-31T19:22:45;10.67;;;9.87;;
2658;SDS011;1339;53.304;10.406;2023-07-31T19:25:12;9.47;;;8.77;;
2658;SDS011;1339;53.304;10.406;2023-07-31T19:27:39;10.20;;;9.33;;
2658;SDS011;1339;53.304;10.406;2023-07-31T19:30:07;10.93;;;10.13;;
2658;SDS011;1339;53.304;10.406;2023-07-31T19:32:34;10.40;;;9.60;;
2658;SDS011;1339;53.304;10.406;2023-07-31T19:35:01;9.87;;;9.07;;
2658;SDS011;1339;53.304;10.406;2023-07-31T19:37:28;10.60;;;9.80;;
2658;SDS011;1339;53.304;10.406;2023-07-31T19:39:57;11.97;;;11.10;;
2658;SDS011;1339;53.304;10.406;2023-07-31T19:42:24;11.07;;;10.03;;
2658;SDS011;1339;53.304;10.406;2023-07-31T19:44:51;11.07;;;9.87;;
2658;SDS011;1339;53.304;10.406;2023-07-31T19:47:18;11.17;;;10.27;;
2658;SDS011;1339;53.304;10.406;2023-07-31T19:49:45;12.00;;;11.00;;
2658;SDS011;1339;53.304;10.406;2023-07-31T19:52:12;10.50;;;9.70;;
2658;SDS011;1339;53.304;10.406;2023-07-31T19:54:39;12.30;;;11.30;;
2658;SDS011;1339;53.304;10.406;2023-07-31T19:57:07;10.60;;;9.80;;
2658;SDS011;1339;53.304;10.406;2023-07-31T19:59:34;11.60;;;10.70;;
2658;SDS011;1339;53.304;10.406;2023-07-31T20:02:01;12.07;;;10.97;;
2658;SDS011;1339;53.304;10.406;2023-07-31T20:04:28;11.00;;;10.10;;
2658;SDS011;1339;53.304;10.406;2023-07-31T20:06:55;11.20;;;10.40;;
2658;SDS011;1339;53.304;10.406;2023-07-31T20:09:22;12.00;;;11.20;;
2658;SDS011;1339;53.304;10.406;2023-07-31T20:11:49;10.00;;;9.00;;
2658;SDS011;1339;53.304;10.406;2023-07-31T20:14:17;9.03;;;8.37;;
2658;SDS011;1339;53.304;10.406;2023-07-31T20:16:44;9.00;;;8.40;;
2658;SDS011;1339;53.304;10.406;2023-07-31T20:19:11;7.97;;;7.37;;
2658;SDS011;1339;53.304;10.406;2023-07-31T20:21:38;7.30;;;6.80;;
2658;SDS011;1339;53.304;10.406;2023-07-31T20:24:06;7.73;;;7.13;;
2658;SDS011;1339;53.304;10.406;2023-07-31T20:26:34;7.10;;;6.40;;
2658;SDS011;1339;53.304;10.406;2023-07-31T20:29:01;7.37;;;6.53;;
2658;SDS011;1339;53.304;10.406;2023-07-31T20:31:30;6.77;;;6.27;;
2658;SDS011;1339;53.304;10.406;2023-07-31T20:33:57;5.77;;;5.27;;
2658;SDS011;1339;53.304;10.406;2023-07-31T20:36:23;6.20;;;5.60;;
2658;SDS011;1339;53.304;10.406;2023-07-31T20:38:51;5.83;;;4.77;;
2658;SDS011;1339;53.304;10.406;2023-07-31T20:41:18;3.83;;;3.53;;
2658;SDS011;1339;53.304;10.406;2023-07-31T20:43:45;3.93;;;3.53;;
2658;SDS011;1339;53.304;10.406;2023-07-31T20:46:11;3.80;;;3.50;;
2658;SDS011;1339;53.304;10.406;2023-07-31T20:48:40;3.77;;;3.47;;
2658;SDS011;1339;53.304;10.406;2023-07-31T20:51:07;4.00;;;3.20;;
2658;SDS011;1339;53.304;10.406;2023-07-31T20:53:34;4.53;;;3.73;;
2658;SDS011;1339;53.304;10.406;2023-07-31T20:56:01;3.10;;;2.80;;
2658;SDS011;1339;53.304;10.406;2023-07-31T20:58:28;3.53;;;2.97;;
2658;SDS011;1339;53.304;10.406;2023-07-31T21:00:55;4.00;;;3.60;;
2658;SDS011;1339;53.304;10.406;2023-07-31T21:03:22;3.37;;;3.07;;
2658;SDS011;1339;53.304;10.406;2023-07-31T21:05:50;3.63;;;3.23;;
2658;SDS011;1339;53.304;10.406;2023-07-31T21:08:17;4.10;;;3.20;;
2658;SDS011;1339;53.304;10.406;2023-07-31T21:10:44;3.80;;;3.43;;
2658;SDS011;1339;53.304;10.406;2023-07-31T21:13:11;3.63;;;3.33;;
2658;SDS011;1339;53.304;10.406;2023-07-31T21:15:39;3.33;;;2.77;;
2658;SDS011;1339;53.304;10.406;2023-07-31T21:18:06;5.70;;;3.63;;
2658;SDS011;1339;53.304;10.406;2023-07-31T21:20:33;3.10;;;2.80;;
2658;SDS011;1339;53.304;10.406;2023-07-31T21:23:02;6.60;;;3.50;;
2658;SDS011;1339;53.304;10.406;2023-07-31T21:25:32;4.67;;;4.27;;
2658;SDS011;1339;53.304;10.406;2023-07-31T21:27:59;3.70;;;3.40;;
2658;SDS011;1339;53.304;10.406;2023-07-31T21:30:27;4.23;;;3.40;;
2658;SDS011;1339;53.304;10.406;2023-07-31T21:32:55;3.70;;;3.30;;
2658;SDS011;1339;53.304;10.406;2023-07-31T21:35:22;3.80;;;3.50;;
2658;SDS011;1339;53.304;10.406;2023-07-31T21:37:49;3.97;;;3.37;;
2658;SDS011;1339;53.304;10.406;2023-07-31T21:40:17;3.50;;;3.30;;
2658;SDS011;1339;53.304;10.406;2023-07-31T21:42:44;5.00;;;4.60;;
2658;SDS011;1339;53.304;10.406;2023-07-31T21:45:11;4.23;;;3.90;;
2658;SDS011;1339;53.304;10.406;2023-07-31T21:47:38;4.60;;;4.20;;
2658;SDS011;1339;53.304;10.406;2023-07-31T21:50:05;5.60;;;5.03;;
2658;SDS011;1339;53.304;10.406;2023-07-31T21:52:32;4.93;;;4.53;;
2658;SDS011;1339;53.304;10.406;2023-07-31T21:54:59;5.00;;;4.60;;
2658;SDS011;1339;53.304;10.406;2023-07-31T21:57:28;4.87;;;4.47;;
2658;SDS011;1339;53.304;10.406;2023-07-31T21:59:55;6.40;;;5.80;;
2658;SDS011;1339;53.304;10.406;2023-07-31T22:02:22;4.87;;;4.47;;
2658;SDS011;1339;53.304;10.406;2023-07-31T22:04:49;5.90;;;5.50;;
2658;SDS011;1339;53.304;10.406;2023-07-31T22:07:15;5.60;;;5.20;;
2658;SDS011;1339;53.304;10.406;2023-07-31T22:09:42;8.70;;;5.00;;
2658;SDS011;1339;53.304;10.406;2023-07-31T22:12:09;5.50;;;5.07;;
2658;SDS011;1339;53.304;10.406;2023-07-31T22:14:38;5.57;;;4.60;;
2658;SDS011;1339;53.304;10.406;2023-07-31T22:17:05;5.57;;;5.17;;
2658;SDS011;1339;53.304;10.406;2023-07-31T22:19:32;8.80;;;5.33;;
2658;SDS011;1339;53.304;10.406;2023-07-31T22:21:59;5.50;;;5.00;;
2658;SDS011;1339;53.304;10.406;2023-07-31T22:24:26;5.27;;;4.77;;
2658;SDS011;1339;53.304;10.406;2023-07-31T22:26:53;5.20;;;4.83;;
2658;SDS011;1339;53.304;10.406;2023-07-31T22:29:21;5.00;;;4.70;;
2658;SDS011;1339;53.304;10.406;2023-07-31T22:31:49;4.73;;;4.33;;
2658;SDS011;1339;53.304;10.406;2023-07-31T22:34:16;5.73;;;4.53;;
2658;SDS011;1339;53.304;10.406;2023-07-31T22:36:43;5.33;;;4.17;;
2658;SDS011;1339;53.304;10.406;2023-07-31T22:39:10;3.93;;;3.63;;
2658;SDS011;1339;53.304;10.406;2023-07-31T22:41:37;4.50;;;4.20;;
2658;SDS011;1339;53.304;10.406;2023-07-31T22:44:04;5.33;;;4.93;;
2658;SDS011;1339;53.304;10.406;2023-07-31T22:46:31;5.30;;;4.77;;
2658;SDS011;1339;53.304;10.406;2023-07-31T22:48:59;5.77;;;5.27;;
2658;SDS011;1339;53.304;10.406;2023-07-31T22:51:26;4.10;;;3.80;;
